Latest Weather Observations for Fingal

IDT60801

Issued at 9:31 pm EST Friday 22 May 2015 (issued every 30 minutes, with the page automatically refreshed every 10 minutes)

About weather observations | Map of weather stations | Latest weather observations for TAS | Other Formats
Station Details ID: 092012 Name: FINGAL (LEGGE STREET) Lat: -41.64 Lon: 147.97 Height: 237.0 m
Data from the previous 72 hours. | See also: Recent months at Fingal
Date/Time
EST
Temp
°C
App
Temp
°C
Dew
Point
Rel
Hum
%
Delta-T
°C
Wind Press
QNH
hPa
Press
MSL
hPa
Rain
since 9 am
mm
Dir
 
Spd
km/h
Gust
km/h
Spd
kts
Gust
kts
22/09:30pm -1.0 -4.1 -2.6 89 0.5 WNW 4 6 2 3 - - 0.0
22/09:00pm -0.3 -2.9 -1.9 89 0.5 W 2 7 1 4 - - 0.0
22/08:30pm 0.0 -3.0 -1.7 88 0.6 SSW 4 9 2 5 - - 0.0
22/08:00pm 0.7 -2.2 -1.1 88 0.6 SE 4 7 2 4 - - 0.0
22/07:30pm 0.6 -2.0 -1.8 84 0.9 WNW 2 7 1 4 - - 0.0
22/07:00pm 1.9 -0.9 -0.7 83 1.0 S 4 7 2 4 - - 0.0
22/06:30pm 2.4 -0.8 -0.5 81 1.1 SSW 6 7 3 4 - - 0.0
22/06:00pm 3.6 1.3 0.1 78 1.3 SSE 2 9 1 5 - - 0.0
22/05:30pm 4.9 1.8 0.1 71 1.9 SSE 6 7 3 4 - - 0.0
22/05:00pm 6.9 5.0 0.6 64 2.5 CALM 0 0 0 0 - - 0.0
22/04:30pm 10.5 7.6 1.6 54 3.8 WNW 6 9 3 5 - - 0.0
22/04:00pm 11.4 7.8 0.8 48 4.5 WSW 9 17 5 9 - - 0.0
22/03:30pm 11.7 7.4 1.1 48 4.5 WSW 13 19 7 10 - - 0.0
22/03:00pm 11.6 7.3 1.3 49 4.4 WSW 13 22 7 12 - - 0.0
22/02:30pm 11.5 7.3 1.5 50 4.3 WSW 13 22 7 12 - - 0.0
22/02:00pm 11.4 7.1 1.1 49 4.4 W 13 20 7 11 - - 0.0
22/01:30pm 11.1 6.8 1.1 50 4.2 WSW 13 22 7 12 - - 0.0
22/01:00pm 10.6 5.7 1.7 54 3.8 W 17 26 9 14 - - 0.0
22/12:30pm 10.4 5.8 1.5 54 3.8 W 15 24 8 13 - - 0.0
22/12:00pm 9.8 4.8 1.5 56 3.5 W 17 22 9 12 - - 0.0
22/11:30am 9.7 4.7 1.4 56 3.5 WSW 17 24 9 13 - - 0.0
22/11:00am 9.1 4.2 1.8 60 3.1 W 17 24 9 13 - - 0.0
22/10:30am 8.6 4.0 1.5 61 3.0 WSW 15 26 8 14 - - 0.0
22/10:00am 8.0 3.7 1.2 62 2.8 W 13 26 7 14 - - 0.0
22/09:30am 7.7 4.2 1.3 64 2.6 WSW 9 17 5 9 - - 0.0
22/09:00am 7.5 4.1 1.8 67 2.4 SW 9 13 5 7 - - 0.0
22/08:30am 3.7 2.0 1.6 86 0.8 CALM 0 6 0 3 - - 0.0
22/08:00am 3.4 0.9 1.4 87 0.8 NNE 4 7 2 4 - - 0.0
22/07:30am 3.2 1.4 1.1 86 0.8 CALM 0 0 0 0 - - 0.0
22/07:00am 3.8 0.8 1.0 82 1.1 W 6 9 3 5 - - 0.0
22/06:30am 4.1 2.3 1.5 83 1.0 CALM 0 0 0 0 - - 0.0
22/06:00am 5.1 3.0 1.9 80 1.3 WNW 2 7 1 4 - - 0.0
22/05:30am 5.6 3.9 1.9 77 1.5 CALM 0 0 0 0 - - 0.0
22/05:00am 5.8 4.1 1.9 76 1.6 CALM 0 0 0 0 - - 0.0
22/04:30am 6.1 4.4 1.6 73 1.8 CALM 0 0 0 0 - - 0.0
22/04:00am 6.6 3.7 1.3 69 2.2 WSW 6 9 3 5 - - 0.0
22/03:30am 6.8 3.8 1.1 67 2.3 S 6 7 3 4 - - 0.0
22/03:00am 7.1 4.1 1.0 65 2.5 SSW 6 9 3 5 - - 0.0
22/02:30am 7.2 4.1 1.1 65 2.5 SSW 7 17 4 9 - - 0.0
22/02:00am 7.2 4.1 1.3 66 2.4 SSW 7 11 4 6 - - 0.0
22/01:30am 7.3 4.2 1.2 65 2.5 SSW 7 13 4 7 - - 0.0
22/01:00am 7.1 4.2 1.4 67 2.3 WSW 6 9 3 5 - - 0.0
22/12:30am 7.6 4.1 1.2 64 2.6 SSW 9 13 5 7 - - 0.0
22/12:00am 7.5 4.0 1.1 64 2.6 WSW 9 13 5 7 - - 0.0
 
Date/Time
EST
Temp
°C
App
Temp
°C
Dew
Point
Rel
Hum
%
Delta-T
°C
Wind Press
QNH
hPa
Press
MSL
hPa
Rain
since 9 am
mm
Dir
 
Spd
km/h
Gust
km/h
Spd
kts
Gust
kts
21/11:30pm 7.8 4.3 1.0 62 2.8 SSW 9 13 5 7 - - 0.0
21/11:00pm 7.9 4.8 1.1 62 2.8 SW 7 11 4 6 - - 0.0
21/10:30pm 8.0 4.5 1.2 62 2.8 SW 9 13 5 7 - - 0.0
21/10:00pm 7.5 4.6 1.6 66 2.4 SW 6 9 3 5 - - 0.0
21/09:30pm 7.8 4.7 1.4 64 2.6 WNW 7 11 4 6 - - 0.0
21/09:00pm 8.2 5.1 1.1 61 2.9 SW 7 13 4 7 - - 0.0
21/08:30pm 8.3 4.8 1.5 62 2.8 S 9 17 5 9 - - 0.0
21/08:00pm 7.9 4.8 1.5 64 2.6 SW 7 13 4 7 - - 0.0
21/07:30pm 8.0 5.1 1.4 63 2.7 WSW 6 9 3 5 - - 0.0
21/07:00pm 7.9 5.0 1.3 63 2.7 WSW 6 9 3 5 - - 0.0
21/06:30pm 8.1 5.1 1.0 61 2.9 WSW 6 9 3 5 - - 0.0
21/06:00pm 8.2 5.2 1.1 61 2.9 SW 6 7 3 4 - - 0.0
21/05:30pm 8.3 5.4 1.2 61 2.9 W 6 9 3 5 - - 0.0
21/05:00pm 8.5 5.4 1.4 61 2.9 SW 7 13 4 7 - - 0.0
21/04:30pm 8.8 5.5 2.2 63 2.8 S 9 17 5 9 - - 0.0
21/04:00pm 9.3 6.0 2.4 62 3.0 SSW 9 17 5 9 - - 0.0
21/03:30pm 9.6 6.3 2.2 60 3.2 WSW 9 13 5 7 - - 0.0
21/03:00pm 9.8 5.6 1.9 58 3.4 SSE 13 20 7 11 - - 0.0
21/02:30pm 10.2 6.8 1.8 56 3.6 SSW 9 17 5 9 - - 0.0
21/02:00pm 10.2 6.5 2.3 58 3.4 SSE 11 20 6 11 - - 0.0
21/01:30pm 10.4 5.9 2.3 57 3.5 SSW 15 28 8 15 - - 0.0
21/01:00pm 10.2 6.6 2.8 60 3.2 SSE 11 24 6 13 - - 0.0
21/12:30pm 10.3 6.7 2.7 59 3.3 S 11 22 6 12 - - 0.0
21/12:00pm 10.1 6.5 2.7 60 3.2 SSW 11 19 6 10 - - 0.0
21/11:30am 9.9 6.3 3.0 62 3.0 S 11 17 6 9 - - 0.0
21/11:00am 9.8 5.8 3.1 63 2.9 WSW 13 19 7 10 - - 0.0
21/10:30am 9.5 5.6 3.5 66 2.6 WSW 13 24 7 13 - - 0.0
21/10:00am 8.6 4.4 3.8 72 2.1 W 15 28 8 15 - - 0.0
21/09:30am 8.0 4.6 3.8 75 1.8 W 11 20 6 11 - - 0.0
21/09:00am 7.1 4.6 3.5 78 1.5 W 6 11 3 6 - - 0.6
21/08:30am 6.6 3.8 2.9 77 1.6 SSW 7 11 4 6 - - 0.6
21/08:00am 5.4 2.5 2.6 82 1.2 SW 7 13 4 7 - - 0.6
21/07:30am 3.3 0.3 1.0 85 0.9 SW 6 11 3 6 - - 0.6
21/07:00am 3.6 0.0 0.8 82 1.1 SW 9 13 5 7 - - 0.6
21/06:30am 4.3 0.4 1.3 81 1.2 W 11 15 6 8 - - 0.6
21/06:00am 4.0 0.4 0.3 77 1.4 WNW 9 11 5 6 - - 0.6
21/05:30am 6.1 2.3 1.8 74 1.8 SW 11 20 6 11 - - 0.6
21/05:00am 6.0 2.6 1.7 74 1.8 SW 9 15 5 8 - - 0.6
21/04:30am 5.9 2.5 1.8 75 1.7 WSW 9 17 5 9 - - 0.6
21/04:00am 6.5 3.3 2.9 78 1.5 SW 9 13 5 7 - - 0.6
21/03:30am 6.7 3.7 3.9 82 1.2 WSW 9 17 5 9 - - 0.6
21/03:00am 8.2 4.3 5.3 82 1.3 SW 15 24 8 13 - - 0.6
21/02:30am 8.0 5.9 6.5 90 0.7 WSW 7 11 4 6 - - 0.6
21/02:00am 7.9 5.8 6.8 93 0.5 WNW 7 9 4 5 - - 0.6
21/01:30am 8.1 7.4 7.0 93 0.5 CALM 0 0 0 0 - - 0.6
21/01:00am 8.1 7.5 7.2 94 0.4 CALM 0 7 0 4 - - 0.6
21/12:30am 8.0 7.3 7.1 94 0.4 CALM 0 0 0 0 - - 0.6
21/12:00am 7.9 7.2 7.0 94 0.4 CALM 0 0 0 0 - - 0.6
 
Date/Time
EST
Temp
°C
App
Temp
°C
Dew
Point
Rel
Hum
%
Delta-T
°C
Wind Press
QNH
hPa
Press
MSL
hPa
Rain
since 9 am
mm
Dir
 
Spd
km/h
Gust
km/h
Spd
kts
Gust
kts
20/11:30pm 7.9 7.2 7.0 94 0.4 CALM 0 0 0 0 - - 0.6
20/11:00pm 7.8 5.8 6.9 94 0.4 SE 7 9 4 5 - - 0.6
20/10:30pm 7.8 5.9 6.9 94 0.4 WNW 6 7 3 4 - - 0.6
20/10:00pm 8.0 6.2 7.2 95 0.4 SW 6 9 3 5 - - 0.6
20/09:30pm 7.5 6.7 6.6 94 0.4 CALM 0 0 0 0 - - 0.6
20/09:00pm 7.1 6.2 6.2 94 0.4 CALM 0 0 0 0 - - 0.6
20/08:30pm 7.0 5.3 6.1 94 0.4 E 4 7 2 4 - - 0.6
20/08:00pm 6.5 5.5 5.5 93 0.4 CALM 0 0 0 0 - - 0.6
20/07:30pm 7.1 6.2 5.9 92 0.5 CALM 0 0 0 0 - - 0.6
20/07:00pm 7.9 7.1 6.5 91 0.7 CALM 0 0 0 0 - - 0.6
20/06:30pm 8.7 8.0 7.0 89 0.8 CALM 0 0 0 0 - - 0.6
20/06:00pm 9.9 8.1 7.8 87 1.0 SSE 7 13 4 7 - - 0.6
20/05:30pm 9.7 9.0 8.5 92 0.6 WNW 2 7 1 4 - - 0.6
20/05:00pm 9.7 7.7 8.5 92 0.6 NNE 9 15 5 8 - - 0.6
20/04:30pm 10.6 8.7 9.0 90 0.8 NE 9 13 5 7 - - 0.6
20/04:00pm 10.9 10.9 9.7 92 0.6 CALM 0 0 0 0 - - 0.4
20/03:30pm 10.8 10.0 9.6 92 0.6 NNW 4 7 2 4 - - 0.2
20/03:00pm 10.9 10.8 9.5 91 0.7 CALM 0 0 0 0 - - 0.2
20/02:30pm 10.9 9.7 9.5 91 0.7 NNE 6 7 3 4 - - 0.0
20/02:00pm 10.7 9.5 9.5 92 0.6 N 6 7 3 4 - - 0.0
20/01:30pm 10.3 9.8 9.2 93 0.6 N 2 7 1 4 - - 0.0
20/01:00pm 9.8 8.4 9.0 95 0.4 NNE 6 7 3 4 - - 0.0
20/12:30pm 8.9 8.5 8.1 95 0.4 CALM 0 0 0 0 - - 0.0
20/12:00pm 8.6 6.8 7.8 95 0.4 NNE 7 13 4 7 - - 0.0
20/11:30am 8.3 6.6 7.5 95 0.4 NNE 6 9 3 5 - - 0.0
20/11:00am 8.7 7.9 8.1 96 0.3 N 2 6 1 3 - - 0.0
20/10:30am 8.0 6.3 7.4 96 0.3 NNE 6 7 3 4 - - 0.0
20/10:00am 7.5 5.6 6.9 96 0.3 ESE 6 7 3 4 - - 0.0
20/09:30am 7.1 5.2 6.5 96 0.3 NW 6 7 3 4 - - 0.0
20/09:00am 5.2 4.0 4.5 95 0.3 CALM 0 0 0 0 - - 0.6
20/08:30am 4.4 1.7 3.7 95 0.3 NNE 7 9 4 5 - - 0.6
20/08:00am 4.4 1.9 3.7 95 0.3 N 6 9 3 5 - - 0.6
20/07:30am 4.3 2.9 3.6 95 0.3 CALM 0 0 0 0 - - 0.6
20/07:00am 3.7 1.4 3.0 95 0.3 NNE 4 7 2 4 - - 0.6
20/06:30am 4.1 2.7 3.4 95 0.3 CALM 0 4 0 2 - - 0.6
20/06:00am 4.8 3.5 4.1 95 0.3 CALM 0 0 0 0 - - 0.6
20/05:30am 3.6 1.3 2.7 94 0.4 SSE 4 7 2 4 - - 0.4
20/05:00am 5.0 2.6 4.3 95 0.3 S 6 9 3 5 - - 0.4
20/04:30am 4.9 2.5 4.2 95 0.3 S 6 9 3 5 - - 0.4
20/04:00am 4.5 3.1 3.6 94 0.4 CALM 0 0 0 0 - - 0.4
20/03:30am 4.7 2.6 3.8 94 0.4 SE 4 7 2 4 - - 0.4
20/03:00am 4.8 2.3 3.9 94 0.4 SSE 6 7 3 4 - - 0.4
20/02:30am 5.8 2.9 4.9 94 0.4 S 9 11 5 6 - - 0.4
20/02:00am 5.5 4.3 4.5 93 0.4 CALM 0 0 0 0 - - 0.4
20/01:30am 6.1 4.2 5.1 93 0.4 SSW 4 9 2 5 - - 0.4
20/01:00am 6.3 5.2 5.1 92 0.5 CALM 0 0 0 0 - - 0.4
20/12:30am 7.5 5.5 6.3 92 0.6 SE 6 7 3 4 - - 0.4
20/12:00am 8.0 6.5 6.6 91 0.7 WSW 4 9 2 5 - - 0.4
 
Date/Time
EST
Temp
°C
App
Temp
°C
Dew
Point
Rel
Hum
%
Delta-T
°C
Wind Press
QNH
hPa
Press
MSL
hPa
Rain
since 9 am
mm
Dir
 
Spd
km/h
Gust
km/h
Spd
kts
Gust
kts
19/11:30pm 8.6 6.8 7.1 90 0.7 S 6 7 3 4 - - 0.4
19/11:00pm 8.9 8.2 6.9 87 0.9 CALM 0 0 0 0 - - 0.4
19/10:30pm 10.1 9.6 7.9 86 1.1 CALM 0 0 0 0 - - 0.4
19/10:00pm 11.1 9.6 8.3 83 1.4 ENE 6 9 3 5 - - 0.4

Other Formats:

Comma delimited format used in spreadsheet applications
http://www.bom.gov.au/fwo/IDT60801/IDT60801.95974.axf

JavaScript Object Notation format (JSON) in row-major order
http://www.bom.gov.au/fwo/IDT60801/IDT60801.95974.json